Have a Safe July 4th! 

Flight Track Log - Related Links

Times and Time Zones

All times are in EDT time to prevent confusion due to time zone crossing. See the RPA3392 flight status page for this flight to view local times or setup timezone preferences in your user account.

Time Position Orientation Groundspeed Altitude Reporting Facility
EDT Latitude Longitude Course Direction KTS MPH feet Rate Location/Type
Mon 06:52:01 PM 44.9000 -93.2333 117° Southeast 177 204 1,600  Level Minneapolis TRACON
Mon 06:53:01 PM 44.9500 -93.2500 347° North 197 227 2,900 1,344 Climbing Minneapolis TRACON
Mon 06:54:00 PM 44.7585 -92.7719 111° Southeast  Level Estimated
Mon 06:54:06 PM 44.9894 -93.2125 34° Northeast 238 274 4,400  Level Minneapolis Center
Mon 06:55:00 PM 44.7170 -92.6224 113° Southeast  Level Estimated
Mon 06:55:09 PM 45.0217 -93.1036 67° East 275 316 7,500  Level Minneapolis Center
Mon 06:56:00 PM 44.6753 -92.4731 125° Southeast  Level Estimated
Mon 06:56:11 PM 44.9750 -93.0117 126° Southeast 287 330 10,000  Level Minneapolis Center
Mon 06:57:00 PM 44.6334 -92.3240 117° Southeast  Level Estimated
Mon 06:57:13 PM 44.9247 -92.9142 126° Southeast 304 350 11,800  Level Minneapolis Center
Mon 06:58:15 PM 44.8592 -92.7869 126° Southeast 329 379 14,900 2,613 Climbing Minneapolis Center
Mon 06:59:17 PM 44.8022 -92.6772 126° Southeast 344 396 17,200 1,790 Climbing Minneapolis Center
Mon 07:00:19 PM 44.7433 -92.5658 127° Southeast 353 406 18,600 1,597 Climbing Minneapolis Center
Mon 07:01:21 PM 44.6775 -92.4414 127° Southeast 387 445 20,500 1,742 Climbing Minneapolis Center
Mon 07:02:23 PM 44.6108 -92.3139 126° Southeast 399 459 22,200 1,694 Climbing Minneapolis Center
Mon 07:03:25 PM 44.5428 -92.1842 126° Southeast 407 468 24,000 1,694 Climbing Minneapolis Center
Mon 07:04:27 PM 44.4628 -92.0283 126° Southeast 413 475 25,700 1,403 Climbing Minneapolis Center
Mon 07:05:29 PM 44.3928 -91.8936 126° Southeast 423 487 26,900 1,344 Climbing Minneapolis Center
Mon 07:06:32 PM 44.3286 -91.7506 122° Southeast 431 496 28,500 1,440 Climbing Minneapolis Center
Mon 07:07:34 PM 44.2742 -91.6056 118° Southeast 429 494 29,900 1,161 Climbing Minneapolis Center
Mon 07:08:36 PM 44.2194 -91.4597 118° Southeast 426 490 30,900 1,113 Climbing Minneapolis Center
Mon 07:09:38 PM 44.1644 -91.3150 118° Southeast 425 489 32,200 1,016 Climbing Minneapolis Center
Mon 07:10:40 PM 44.0992 -91.1444 118° Southeast 426 490 33,000 387 Climbing Minneapolis Center
Mon 07:11:42 PM 44.0419 -90.9958 118° Southeast 435 501 33,000  Level Minneapolis Center
Mon 07:12:44 PM 43.9844 -90.8478 118° Southeast 437 503 33,000  Level Minneapolis Center
Mon 07:13:46 PM 43.9261 -90.6994 119° Southeast 440 506 33,000  Level Minneapolis Center
Mon 07:14:38 PM 43.8667 -90.5539 119° Southeast 438 504 33,000  Level Chicago Center
Mon 07:15:39 PM 43.8092 -90.4058 118° Southeast 438 504 33,000  Level Chicago Center
Mon 07:16:41 PM 43.7508 -90.2606 119° Southeast 435 501 33,000  Level Chicago Center
Mon 07:17:43 PM 43.6933 -90.1158 119° Southeast 431 496 33,000  Level Chicago Center
Mon 07:18:45 PM 43.6342 -89.9706 119° Southeast 433 498 33,000  Level Chicago Center
Mon 07:19:47 PM 43.5653 -89.8036 120° Southeast 430 495 33,000  Level Chicago Center
Mon 07:20:49 PM 43.5175 -89.6511 113° Southeast 433 498 33,000  Level Chicago Center
Mon 07:21:51 PM 43.4733 -89.4978 112° Southeast 431 496 33,000  Level Chicago Center
Mon 07:22:53 PM 43.4283 -89.3439 112° Southeast 434 499 33,000  Level Chicago Center
Mon 07:23:54 PM 43.3836 -89.1892 112° Southeast 435 501 33,000  Level Chicago Center
Mon 07:24:56 PM 43.3311 -89.0092 112° Southeast 437 503 33,000  Level Chicago Center
Mon 07:25:58 PM 43.2867 -88.8547 112° Southeast 437 503 33,000  Level Chicago Center
Mon 07:27:00 PM 43.2414 -88.7042 112° Southeast 433 498 33,000  Level Chicago Center
Mon 07:28:02 PM 43.1958 -88.5525 112° Southeast 435 501 33,000  Level Chicago Center
Mon 07:29:04 PM 43.1508 -88.4006 112° Southeast 435 501 33,000  Level Chicago Center
Mon 07:30:06 PM 43.1092 -88.2175 107° East 436 502 33,000  Level Chicago Center
Mon 07:31:08 PM 43.0922 -88.0528 98° East 440 506 33,000 390 Level Chicago Center
Mon 07:32:09 PM 43.0744 -87.8906 98° East 435 501 33,800 732 Climbing Chicago Center
Mon 07:33:11 PM 43.0561 -87.7283 99° East 433 498 34,500 581 Climbing Chicago Center
Mon 07:34:13 PM 43.0375 -87.5656 99° East 433 498 35,000 242 Climbing Chicago Center
Mon 07:35:15 PM 43.0161 -87.3747 99° East 436 502 35,000  Level Chicago Center
Mon 07:36:17 PM 42.9986 -87.2150 98° East 435 501 35,000  Level Chicago Center
Mon 07:37:19 PM 42.9789 -87.0522 99° East 436 502 35,000  Level Chicago Center
Mon 07:38:21 PM 42.9608 -86.8914 99° East 432 497 35,000  Level Chicago Center
Mon 07:39:23 PM 42.9408 -86.7292 100° East 435 501 35,000  Level Chicago Center
Mon 07:40:24 PM 42.9214 -86.5661 99° East 437 503 35,000  Level Chicago Center
Mon 07:41:26 PM 42.8967 -86.3694 100° East 442 509 35,000  Level Chicago Center
Mon 07:42:28 PM 42.8761 -86.2056 100° East 444 511 35,000  Level Chicago Center
Mon 07:43:30 PM 42.8544 -86.0436 100° East 443 510 35,000  Level Chicago Center
Mon 07:44:32 PM 42.8356 -85.8808 99° East 445 512 35,000  Level Chicago Center
Mon 07:45:34 PM 42.8111 -85.6861 100° East 440 506 35,000  Level Chicago Center
Mon 07:46:36 PM 42.7897 -85.5244 100° East 438 504 35,000  Level Chicago Center
Mon 07:47:39 PM 42.7450 -85.3764 112° Southeast 421 484 35,000  Level Chicago Center
Mon 07:48:41 PM 42.6953 -85.2347 115° Southeast 417 480 35,000  Level Chicago Center
Mon 07:49:43 PM 42.6456 -85.0933 116° Southeast 415 478 35,000  Level Chicago Center
Mon 07:50:45 PM 42.5950 -84.9517 116° Southeast 417 480 35,000  Level Chicago Center
Mon 07:51:47 PM 42.5344 -84.7808 116° Southeast 417 480 35,000  Level Chicago Center
Mon 07:52:49 PM 42.4836 -84.6403 116° Southeast 416 479 35,000  Level Chicago Center
Mon 07:53:51 PM 42.4325 -84.4978 116° Southeast 419 482 35,000  Level Chicago Center
Mon 07:54:53 PM 42.3817 -84.3550 116° Southeast 420 483 35,000  Level Chicago Center
Mon 07:55:55 PM 42.3322 -84.2144 115° Southeast 417 480 35,000  Level Chicago Center
Mon 07:57:04 PM 42.2603 -84.0369 119° Southeast 409 471 35,000  Level Cleveland Center
Mon 07:58:04 PM 42.2100 -83.8997 116° Southeast 409 471 35,000  Level Cleveland Center
Mon 07:59:04 PM 42.1556 -83.7625 118° Southeast 409 471 35,000  Level Cleveland Center
Mon 08:00:04 PM 42.1033 -83.6197 116° Southeast 415 478 35,000  Level Cleveland Center
Mon 08:01:04 PM 42.0525 -83.4803 116° Southeast 415 478 35,000  Level Cleveland Center
Mon 08:02:04 PM 41.9911 -83.3519 123° Southeast 408 470 35,000  Level Cleveland Center
Mon 08:03:04 PM 41.9233 -83.2261 126° Southeast 408 470 35,000  Level Cleveland Center
Mon 08:04:04 PM 41.8653 -83.1150 125° Southeast 413 475 35,000  Level Cleveland Center
Mon 08:05:04 PM 41.8011 -82.9925 125° Southeast 413 475 35,000  Level Cleveland Center
Mon 08:06:04 PM 41.7369 -82.8706 125° Southeast 413 475 35,000  Level Cleveland Center
Mon 08:07:05 PM 41.6706 -82.7458 125° Southeast 413 475 35,000  Level Cleveland Center
Mon 08:08:04 PM 41.6081 -82.6272 125° Southeast 413 475 35,000  Level Cleveland Center
Mon 08:09:04 PM 41.5436 -82.5058 125° Southeast 413 475 35,000  Level Cleveland Center
Mon 08:10:04 PM 41.4747 -82.3789 126° Southeast 413 475 35,000 -450 Level Cleveland Center
Mon 08:11:04 PM 41.3803 -82.2794 142° Southeast 397 457 34,100 -950 Descending Cleveland Center
Mon 08:12:04 PM 41.2856 -82.2053 150° Southeast 397 457 33,100 -550 Descending Cleveland Center
Mon 08:13:04 PM 41.2136 -82.1289 141° Southeast 408 470 33,000 -50 Descending Cleveland Center
Mon 08:14:04 PM 41.1131 -82.0025 137° Southeast 418 481 33,000  Level Cleveland Center
Mon 08:15:04 PM 41.0289 -81.8961 136° Southeast 424 488 33,000  Level Cleveland Center
Mon 08:16:04 PM 40.9467 -81.7928 136° Southeast 424 488 33,000  Level Cleveland Center
Mon 08:17:04 PM 40.8622 -81.6922 138° Southeast 410 472 33,000  Level Cleveland Center
Mon 08:18:04 PM 40.7819 -81.5894 136° Southeast 405 466 33,000  Level Cleveland Center
Mon 08:19:04 PM 40.7014 -81.4922 138° Southeast 405 466 33,000  Level Cleveland Center
Mon 08:20:04 PM 40.6167 -81.3900 137° Southeast 405 466 33,000 -150 Level Cleveland Center
Mon 08:21:04 PM 40.5381 -81.2881 135° Southeast 405 466 32,700 -645 Descending Cleveland Center
Mon 08:22:05 PM 40.4533 -81.1861 138° Southeast 405 466 31,700 -850 Descending Cleveland Center
Mon 08:23:04 PM 40.3703 -81.0844 137° Southeast 410 472 31,000 -353 Descending Cleveland Center
Mon 08:24:04 PM 40.2853 -80.9858 138° Southeast 410 472 31,000  Level Cleveland Center
Mon 08:25:04 PM 40.2003 -80.8819 137° Southeast 410 472 31,000  Level Cleveland Center
Mon 08:26:04 PM 40.1150 -80.7814 138° Southeast 410 472 31,000  Level Cleveland Center
Mon 08:27:04 PM 40.0317 -80.6833 138° Southeast 410 472 31,000  Level Cleveland Center
Mon 08:28:04 PM 39.9464 -80.5803 137° Southeast 410 472 31,000  Level Cleveland Center
Mon 08:29:04 PM 39.8586 -80.4831 140° Southeast 410 472 31,000  Level Cleveland Center
Mon 08:30:04 PM 39.7753 -80.3806 137° Southeast 410 472 31,000  Level Cleveland Center
Mon 08:31:04 PM 39.6833 -80.2917 143° Southeast 410 472 31,000  Level Cleveland Center
Mon 08:32:04 PM 39.5872 -80.2139 148° Southeast 410 472 31,000  Level Cleveland Center
Mon 08:33:04 PM 39.5242 -80.0853 122° Southeast 397 457 31,000  Level Cleveland Center
Mon 08:34:31 PM 39.4564 -79.8708 112° Southeast 438 504 31,000  Level Washington Center
Mon 08:35:32 PM 39.4053 -79.7228 114° Southeast 448 516 31,000  Level Washington Center
Mon 08:36:32 PM 39.3564 -79.5669 112° Southeast 453 521 31,000 -50 Level Washington Center
Mon 08:37:33 PM 39.3092 -79.4167 112° Southeast 453 521 30,900 -1,240 Descending Washington Center
Mon 08:38:33 PM 39.2597 -79.2614 112° Southeast 459 528 28,500 -1,983 Descending Washington Center
Mon 08:39:31 PM 39.2333 -79.1019 102° East 459 528 27,000 -1,373 Descending Washington Center
Mon 08:40:31 PM 39.2189 -78.9431 97° East 454 522 25,800 -1,785 Descending Washington Center
Mon 08:41:32 PM 39.2044 -78.7844 97° East 448 516 23,400 -2,459 Descending Washington Center
Mon 08:42:33 PM 39.1897 -78.6392 97° East 436 502 20,800 -2,370 Descending Washington Center
Mon 08:43:31 PM 39.1764 -78.4967 97° East 416 479 18,700 -1,932 Descending Washington Center
Mon 08:44:31 PM 39.1608 -78.3650 99° East 391 450 17,000 -893 Descending Washington Center
Mon 08:45:32 PM 39.1303 -78.2353 107° East 377 434 16,900  Descending Washington Center
Mon 08:46:32 PM 39.0997 -78.1083 107° East 372 428 17,000 -706 Climbing Washington Center
Mon 08:47:31 PM 39.0706 -78.0031 110° East 372 428 15,500 -1,866 Descending Washington Center
Mon 08:48:31 PM 39.0358 -77.8658 108° East 358 412 13,300 -1,850 Descending Washington Center
Mon 08:49:31 PM 39.0125 -77.7717 108° East 319 367 11,800 -1,587 Descending Washington Center
Mon 08:50:32 PM 38.9833 -77.6586 108° East 301 346 10,100 -1,587 Descending Washington Center
Mon 08:51:32 PM 38.9500 -77.5667 115° Southeast 283 326 8,600 -1,250 Descending Potomac TRACON
Mon 08:52:32 PM 38.9667 -77.4667 78° East 266 306 7,600 -1,300 Descending Potomac TRACON
Mon 08:53:32 PM 38.9833 -77.3833 76° East 254 292 6,000 -1,300 Descending Potomac TRACON
Mon 08:54:32 PM 39.0167 -77.3000 63° Northeast 242 278 5,000 -1,050 Descending Potomac TRACON
Mon 08:55:32 PM 39.0167 -77.2333 90° East 235 270 3,900 -945 Descending Potomac TRACON
Mon 08:56:39 PM 38.9833 -77.1667 123° Southeast 206 237 3,000 -694 Descending Potomac TRACON
Mon 08:57:33 PM 38.9500 -77.1333 142° Southeast 164 189 2,500 -556 Descending Potomac TRACON

Login

Don't have an account? Register now (free) for customized features, flight alerts, and more!